sensor_id;sensor_type;location;lat;lon;timestamp;P1;durP1;ratioP1;P2;durP2;ratioP2
4424;SDS011;2225;53.568;13.266;2023-05-07T00:01:49;14.67;;;8.00;;
4424;SDS011;2225;53.568;13.266;2023-05-07T00:04:16;14.03;;;7.80;;
4424;SDS011;2225;53.568;13.266;2023-05-07T00:06:43;16.33;;;8.40;;
4424;SDS011;2225;53.568;13.266;2023-05-07T00:09:10;18.73;;;8.53;;
4424;SDS011;2225;53.568;13.266;2023-05-07T00:11:37;20.00;;;8.63;;
4424;SDS011;2225;53.568;13.266;2023-05-07T00:14:04;14.67;;;8.63;;
4424;SDS011;2225;53.568;13.266;2023-05-07T00:16:31;17.87;;;8.30;;
4424;SDS011;2225;53.568;13.266;2023-05-07T00:18:58;17.10;;;8.10;;
4424;SDS011;2225;53.568;13.266;2023-05-07T00:21:25;15.60;;;7.80;;
4424;SDS011;2225;53.568;13.266;2023-05-07T00:23:54;15.67;;;8.03;;
4424;SDS011;2225;53.568;13.266;2023-05-07T00:26:21;12.90;;;7.17;;
4424;SDS011;2225;53.568;13.266;2023-05-07T00:28:50;16.80;;;7.93;;
4424;SDS011;2225;53.568;13.266;2023-05-07T00:31:17;13.30;;;7.33;;
4424;SDS011;2225;53.568;13.266;2023-05-07T00:33:44;17.10;;;7.23;;
4424;SDS011;2225;53.568;13.266;2023-05-07T00:36:10;14.83;;;8.17;;
4424;SDS011;2225;53.568;13.266;2023-05-07T00:38:37;15.53;;;7.73;;
4424;SDS011;2225;53.568;13.266;2023-05-07T00:41:04;12.13;;;7.37;;
4424;SDS011;2225;53.568;13.266;2023-05-07T00:43:31;15.23;;;8.37;;
4424;SDS011;2225;53.568;13.266;2023-05-07T00:45:58;14.70;;;8.50;;
4424;SDS011;2225;53.568;13.266;2023-05-07T00:48:26;14.47;;;7.10;;
4424;SDS011;2225;53.568;13.266;2023-05-07T00:50:53;21.33;;;8.80;;
4424;SDS011;2225;53.568;13.266;2023-05-07T00:53:20;14.53;;;7.77;;
4424;SDS011;2225;53.568;13.266;2023-05-07T00:55:48;16.43;;;8.37;;
4424;SDS011;2225;53.568;13.266;2023-05-07T00:58:14;16.83;;;7.87;;
4424;SDS011;2225;53.568;13.266;2023-05-07T01:00:42;12.03;;;7.53;;
4424;SDS011;2225;53.568;13.266;2023-05-07T01:03:09;13.03;;;7.37;;
4424;SDS011;2225;53.568;13.266;2023-05-07T01:05:36;19.43;;;8.70;;
4424;SDS011;2225;53.568;13.266;2023-05-07T01:08:04;15.40;;;7.73;;
4424;SDS011;2225;53.568;13.266;2023-05-07T01:10:31;16.43;;;8.40;;
4424;SDS011;2225;53.568;13.266;2023-05-07T01:12:58;19.33;;;8.73;;
4424;SDS011;2225;53.568;13.266;2023-05-07T01:15:26;14.83;;;8.23;;
4424;SDS011;2225;53.568;13.266;2023-05-07T01:17:55;22.67;;;8.10;;
4424;SDS011;2225;53.568;13.266;2023-05-07T01:20:29;18.97;;;9.20;;
4424;SDS011;2225;53.568;13.266;2023-05-07T01:22:57;15.30;;;8.60;;
4424;SDS011;2225;53.568;13.266;2023-05-07T01:25:24;15.60;;;8.90;;
4424;SDS011;2225;53.568;13.266;2023-05-07T01:27:55;24.77;;;8.53;;
4424;SDS011;2225;53.568;13.266;2023-05-07T01:30:26;15.90;;;8.33;;
4424;SDS011;2225;53.568;13.266;2023-05-07T01:32:59;14.37;;;8.67;;
4424;SDS011;2225;53.568;13.266;2023-05-07T01:35:39;15.40;;;8.20;;
4424;SDS011;2225;53.568;13.266;2023-05-07T01:38:10;15.50;;;9.20;;
4424;SDS011;2225;53.568;13.266;2023-05-07T01:40:38;18.90;;;7.60;;
4424;SDS011;2225;53.568;13.266;2023-05-07T01:43:05;16.43;;;9.20;;
4424;SDS011;2225;53.568;13.266;2023-05-07T01:45:34;15.20;;;8.23;;
4424;SDS011;2225;53.568;13.266;2023-05-07T01:48:02;17.27;;;9.03;;
4424;SDS011;2225;53.568;13.266;2023-05-07T01:50:30;23.60;;;9.40;;
4424;SDS011;2225;53.568;13.266;2023-05-07T01:52:58;16.20;;;8.90;;
4424;SDS011;2225;53.568;13.266;2023-05-07T01:55:25;16.00;;;8.40;;
4424;SDS011;2225;53.568;13.266;2023-05-07T01:57:52;21.40;;;10.13;;
4424;SDS011;2225;53.568;13.266;2023-05-07T02:00:19;24.67;;;9.87;;
4424;SDS011;2225;53.568;13.266;2023-05-07T02:02:46;21.80;;;9.50;;
4424;SDS011;2225;53.568;13.266;2023-05-07T02:05:23;17.83;;;9.13;;
4424;SDS011;2225;53.568;13.266;2023-05-07T02:08:08;15.53;;;9.20;;
4424;SDS011;2225;53.568;13.266;2023-05-07T02:10:36;18.07;;;7.67;;
4424;SDS011;2225;53.568;13.266;2023-05-07T02:13:05;16.90;;;8.77;;
4424;SDS011;2225;53.568;13.266;2023-05-07T02:15:32;15.77;;;9.00;;
4424;SDS011;2225;53.568;13.266;2023-05-07T02:18:04;12.97;;;8.33;;
4424;SDS011;2225;53.568;13.266;2023-05-07T02:20:33;17.03;;;9.10;;
4424;SDS011;2225;53.568;13.266;2023-05-07T02:23:01;14.73;;;9.37;;
4424;SDS011;2225;53.568;13.266;2023-05-07T02:25:29;17.63;;;9.10;;
4424;SDS011;2225;53.568;13.266;2023-05-07T02:27:57;17.93;;;9.90;;
4424;SDS011;2225;53.568;13.266;2023-05-07T02:30:36;14.23;;;8.13;;
4424;SDS011;2225;53.568;13.266;2023-05-07T02:33:04;14.67;;;8.20;;
4424;SDS011;2225;53.568;13.266;2023-05-07T02:35:32;17.80;;;8.70;;
4424;SDS011;2225;53.568;13.266;2023-05-07T02:37:59;16.27;;;8.53;;
4424;SDS011;2225;53.568;13.266;2023-05-07T02:40:26;16.43;;;8.50;;
4424;SDS011;2225;53.568;13.266;2023-05-07T02:42:53;16.30;;;8.50;;
4424;SDS011;2225;53.568;13.266;2023-05-07T02:45:21;17.83;;;9.13;;
4424;SDS011;2225;53.568;13.266;2023-05-07T02:47:51;14.93;;;8.80;;
4424;SDS011;2225;53.568;13.266;2023-05-07T02:50:18;19.47;;;8.50;;
4424;SDS011;2225;53.568;13.266;2023-05-07T02:52:45;25.23;;;9.70;;
4424;SDS011;2225;53.568;13.266;2023-05-07T02:55:14;13.30;;;8.77;;
4424;SDS011;2225;53.568;13.266;2023-05-07T02:57:41;22.00;;;9.90;;
4424;SDS011;2225;53.568;13.266;2023-05-07T03:00:12;20.07;;;10.37;;
4424;SDS011;2225;53.568;13.266;2023-05-07T03:02:48;17.83;;;10.00;;
4424;SDS011;2225;53.568;13.266;2023-05-07T03:05:15;21.63;;;10.00;;
4424;SDS011;2225;53.568;13.266;2023-05-07T03:07:42;21.37;;;9.70;;
4424;SDS011;2225;53.568;13.266;2023-05-07T03:10:12;17.83;;;10.33;;
4424;SDS011;2225;53.568;13.266;2023-05-07T03:12:39;19.67;;;9.47;;
4424;SDS011;2225;53.568;13.266;2023-05-07T03:15:09;17.23;;;9.30;;
4424;SDS011;2225;53.568;13.266;2023-05-07T03:17:38;17.43;;;9.57;;
4424;SDS011;2225;53.568;13.266;2023-05-07T03:20:05;17.33;;;9.93;;
4424;SDS011;2225;53.568;13.266;2023-05-07T03:22:33;19.03;;;9.47;;
4424;SDS011;2225;53.568;13.266;2023-05-07T03:25:01;26.03;;;9.17;;
4424;SDS011;2225;53.568;13.266;2023-05-07T03:27:27;16.57;;;8.50;;
4424;SDS011;2225;53.568;13.266;2023-05-07T03:29:55;20.90;;;8.93;;
4424;SDS011;2225;53.568;13.266;2023-05-07T03:32:22;20.63;;;9.77;;
4424;SDS011;2225;53.568;13.266;2023-05-07T03:34:49;17.33;;;8.60;;
4424;SDS011;2225;53.568;13.266;2023-05-07T03:37:16;18.60;;;9.17;;
4424;SDS011;2225;53.568;13.266;2023-05-07T03:39:44;18.37;;;9.47;;
4424;SDS011;2225;53.568;13.266;2023-05-07T03:42:11;18.20;;;8.13;;
4424;SDS011;2225;53.568;13.266;2023-05-07T03:44:38;19.43;;;9.07;;
4424;SDS011;2225;53.568;13.266;2023-05-07T03:47:06;21.17;;;9.10;;
4424;SDS011;2225;53.568;13.266;2023-05-07T03:49:33;14.57;;;8.77;;
4424;SDS011;2225;53.568;13.266;2023-05-07T03:52:01;19.13;;;9.20;;
4424;SDS011;2225;53.568;13.266;2023-05-07T03:54:31;14.67;;;9.03;;
4424;SDS011;2225;53.568;13.266;2023-05-07T03:56:59;16.40;;;9.30;;
4424;SDS011;2225;53.568;13.266;2023-05-07T03:59:26;20.20;;;10.93;;
4424;SDS011;2225;53.568;13.266;2023-05-07T04:01:54;16.70;;;9.40;;
4424;SDS011;2225;53.568;13.266;2023-05-07T04:04:22;19.80;;;9.37;;
4424;SDS011;2225;53.568;13.266;2023-05-07T04:06:50;18.70;;;8.70;;
4424;SDS011;2225;53.568;13.266;2023-05-07T04:09:17;18.50;;;9.37;;
4424;SDS011;2225;53.568;13.266;2023-05-07T04:11:46;19.23;;;9.60;;
4424;SDS011;2225;53.568;13.266;2023-05-07T04:14:13;15.97;;;9.90;;
4424;SDS011;2225;53.568;13.266;2023-05-07T04:16:40;17.97;;;9.90;;
4424;SDS011;2225;53.568;13.266;2023-05-07T04:19:07;20.30;;;9.80;;
4424;SDS011;2225;53.568;13.266;2023-05-07T04:21:36;17.30;;;9.57;;
4424;SDS011;2225;53.568;13.266;2023-05-07T04:24:03;17.93;;;8.90;;
4424;SDS011;2225;53.568;13.266;2023-05-07T04:26:31;20.37;;;10.30;;
4424;SDS011;2225;53.568;13.266;2023-05-07T04:28:59;17.43;;;9.33;;
4424;SDS011;2225;53.568;13.266;2023-05-07T04:31:30;20.67;;;10.30;;
4424;SDS011;2225;53.568;13.266;2023-05-07T04:33:58;17.40;;;9.33;;
4424;SDS011;2225;53.568;13.266;2023-05-07T04:36:25;16.50;;;9.77;;
4424;SDS011;2225;53.568;13.266;2023-05-07T04:38:59;15.10;;;9.10;;
4424;SDS011;2225;53.568;13.266;2023-05-07T04:41:26;17.70;;;10.10;;
4424;SDS011;2225;53.568;13.266;2023-05-07T04:43:54;18.10;;;10.50;;
4424;SDS011;2225;53.568;13.266;2023-05-07T04:46:23;20.27;;;8.93;;
4424;SDS011;2225;53.568;13.266;2023-05-07T04:48:52;17.33;;;10.37;;
4424;SDS011;2225;53.568;13.266;2023-05-07T04:51:19;20.67;;;10.20;;
4424;SDS011;2225;53.568;13.266;2023-05-07T04:53:46;20.73;;;11.30;;
4424;SDS011;2225;53.568;13.266;2023-05-07T04:56:14;21.60;;;11.90;;
4424;SDS011;2225;53.568;13.266;2023-05-07T04:58:43;18.40;;;10.30;;
4424;SDS011;2225;53.568;13.266;2023-05-07T05:01:10;17.13;;;10.37;;
4424;SDS011;2225;53.568;13.266;2023-05-07T05:03:38;20.70;;;11.33;;
4424;SDS011;2225;53.568;13.266;2023-05-07T05:06:06;30.57;;;11.93;;
4424;SDS011;2225;53.568;13.266;2023-05-07T05:08:34;20.30;;;10.07;;
4424;SDS011;2225;53.568;13.266;2023-05-07T05:11:02;15.63;;;10.20;;
4424;SDS011;2225;53.568;13.266;2023-05-07T05:13:31;17.83;;;10.63;;
4424;SDS011;2225;53.568;13.266;2023-05-07T05:16:01;23.33;;;11.23;;
4424;SDS011;2225;53.568;13.266;2023-05-07T05:18:31;24.90;;;10.70;;
4424;SDS011;2225;53.568;13.266;2023-05-07T05:20:58;26.00;;;9.93;;
4424;SDS011;2225;53.568;13.266;2023-05-07T05:23:26;21.87;;;11.60;;
4424;SDS011;2225;53.568;13.266;2023-05-07T05:25:57;23.93;;;10.47;;
4424;SDS011;2225;53.568;13.266;2023-05-07T05:28:27;18.50;;;10.33;;
4424;SDS011;2225;53.568;13.266;2023-05-07T05:30:55;18.50;;;11.27;;
4424;SDS011;2225;53.568;13.266;2023-05-07T05:33:23;22.30;;;10.67;;
4424;SDS011;2225;53.568;13.266;2023-05-07T05:35:50;18.90;;;10.70;;
4424;SDS011;2225;53.568;13.266;2023-05-07T05:38:17;17.30;;;10.57;;
4424;SDS011;2225;53.568;13.266;2023-05-07T05:40:44;18.83;;;11.40;;
4424;SDS011;2225;53.568;13.266;2023-05-07T05:43:11;19.10;;;11.17;;
4424;SDS011;2225;53.568;13.266;2023-05-07T05:45:39;19.23;;;10.83;;
4424;SDS011;2225;53.568;13.266;2023-05-07T05:48:06;15.30;;;8.60;;
4424;SDS011;2225;53.568;13.266;2023-05-07T05:50:34;20.93;;;9.93;;
4424;SDS011;2225;53.568;13.266;2023-05-07T05:53:03;20.13;;;9.97;;
4424;SDS011;2225;53.568;13.266;2023-05-07T05:55:30;19.53;;;9.63;;
4424;SDS011;2225;53.568;13.266;2023-05-07T05:57:59;14.83;;;9.00;;
4424;SDS011;2225;53.568;13.266;2023-05-07T06:00:29;15.97;;;9.10;;
4424;SDS011;2225;53.568;13.266;2023-05-07T06:03:01;18.40;;;8.80;;
4424;SDS011;2225;53.568;13.266;2023-05-07T06:05:28;15.37;;;9.17;;
4424;SDS011;2225;53.568;13.266;2023-05-07T06:07:56;15.37;;;8.73;;
4424;SDS011;2225;53.568;13.266;2023-05-07T06:10:25;20.27;;;9.13;;
4424;SDS011;2225;53.568;13.266;2023-05-07T06:12:53;13.63;;;8.30;;
4424;SDS011;2225;53.568;13.266;2023-05-07T06:15:21;15.50;;;8.90;;
4424;SDS011;2225;53.568;13.266;2023-05-07T06:17:49;26.83;;;9.27;;
4424;SDS011;2225;53.568;13.266;2023-05-07T06:20:16;18.13;;;7.43;;
4424;SDS011;2225;53.568;13.266;2023-05-07T06:22:43;13.77;;;7.90;;
4424;SDS011;2225;53.568;13.266;2023-05-07T06:25:12;12.57;;;6.80;;
4424;SDS011;2225;53.568;13.266;2023-05-07T06:27:41;12.30;;;7.10;;
4424;SDS011;2225;53.568;13.266;2023-05-07T06:30:09;12.60;;;5.80;;
4424;SDS011;2225;53.568;13.266;2023-05-07T06:32:36;15.57;;;6.93;;
4424;SDS011;2225;53.568;13.266;2023-05-07T06:35:04;14.07;;;6.57;;
4424;SDS011;2225;53.568;13.266;2023-05-07T06:37:35;11.53;;;6.20;;
4424;SDS011;2225;53.568;13.266;2023-05-07T06:40:05;13.70;;;6.63;;
4424;SDS011;2225;53.568;13.266;2023-05-07T06:42:36;12.33;;;6.53;;
4424;SDS011;2225;53.568;13.266;2023-05-07T06:45:21;11.77;;;6.20;;
4424;SDS011;2225;53.568;13.266;2023-05-07T06:47:48;12.83;;;6.00;;
4424;SDS011;2225;53.568;13.266;2023-05-07T06:50:16;12.80;;;6.57;;
4424;SDS011;2225;53.568;13.266;2023-05-07T06:52:43;21.77;;;6.57;;
4424;SDS011;2225;53.568;13.266;2023-05-07T06:55:10;14.03;;;6.00;;
4424;SDS011;2225;53.568;13.266;2023-05-07T06:57:37;14.77;;;6.33;;
4424;SDS011;2225;53.568;13.266;2023-05-07T07:00:05;10.27;;;5.60;;
4424;SDS011;2225;53.568;13.266;2023-05-07T07:02:44;13.10;;;5.23;;
4424;SDS011;2225;53.568;13.266;2023-05-07T07:05:13;10.27;;;5.53;;
4424;SDS011;2225;53.568;13.266;2023-05-07T07:07:39;13.90;;;5.87;;
4424;SDS011;2225;53.568;13.266;2023-05-07T07:10:07;10.03;;;4.90;;
4424;SDS011;2225;53.568;13.266;2023-05-07T07:12:34;8.30;;;4.33;;
4424;SDS011;2225;53.568;13.266;2023-05-07T07:15:02;9.53;;;4.40;;
4424;SDS011;2225;53.568;13.266;2023-05-07T07:17:29;9.50;;;5.10;;
4424;SDS011;2225;53.568;13.266;2023-05-07T07:19:56;8.07;;;3.90;;
4424;SDS011;2225;53.568;13.266;2023-05-07T07:22:23;10.07;;;4.40;;
4424;SDS011;2225;53.568;13.266;2023-05-07T07:24:50;12.23;;;4.97;;
4424;SDS011;2225;53.568;13.266;2023-05-07T07:27:17;9.93;;;4.40;;
4424;SDS011;2225;53.568;13.266;2023-05-07T07:29:44;9.60;;;4.03;;
4424;SDS011;2225;53.568;13.266;2023-05-07T07:32:11;12.10;;;4.40;;
4424;SDS011;2225;53.568;13.266;2023-05-07T07:34:38;10.00;;;5.20;;
4424;SDS011;2225;53.568;13.266;2023-05-07T07:37:06;11.13;;;4.70;;
4424;SDS011;2225;53.568;13.266;2023-05-07T07:39:35;10.13;;;3.67;;
4424;SDS011;2225;53.568;13.266;2023-05-07T07:42:05;10.67;;;4.50;;
4424;SDS011;2225;53.568;13.266;2023-05-07T07:44:32;10.93;;;4.50;;
4424;SDS011;2225;53.568;13.266;2023-05-07T07:47:04;8.20;;;4.47;;
4424;SDS011;2225;53.568;13.266;2023-05-07T07:49:32;9.13;;;4.70;;
4424;SDS011;2225;53.568;13.266;2023-05-07T07:52:03;9.47;;;4.00;;
4424;SDS011;2225;53.568;13.266;2023-05-07T07:54:32;11.27;;;4.63;;
4424;SDS011;2225;53.568;13.266;2023-05-07T07:56:59;10.10;;;4.30;;
4424;SDS011;2225;53.568;13.266;2023-05-07T07:59:30;8.77;;;4.47;;
4424;SDS011;2225;53.568;13.266;2023-05-07T08:01:57;10.30;;;4.47;;
4424;SDS011;2225;53.568;13.266;2023-05-07T08:04:26;10.50;;;4.40;;
4424;SDS011;2225;53.568;13.266;2023-05-07T08:06:55;9.20;;;4.50;;
4424;SDS011;2225;53.568;13.266;2023-05-07T08:09:23;13.73;;;4.00;;
4424;SDS011;2225;53.568;13.266;2023-05-07T08:11:51;9.40;;;4.80;;
4424;SDS011;2225;53.568;13.266;2023-05-07T08:14:18;10.13;;;4.53;;
4424;SDS011;2225;53.568;13.266;2023-05-07T08:16:46;14.63;;;5.00;;
4424;SDS011;2225;53.568;13.266;2023-05-07T08:19:14;10.67;;;4.60;;
4424;SDS011;2225;53.568;13.266;2023-05-07T08:21:41;12.70;;;4.63;;
4424;SDS011;2225;53.568;13.266;2023-05-07T08:24:10;10.07;;;5.20;;
4424;SDS011;2225;53.568;13.266;2023-05-07T08:26:37;10.90;;;4.53;;
4424;SDS011;2225;53.568;13.266;2023-05-07T08:29:06;13.10;;;5.57;;
4424;SDS011;2225;53.568;13.266;2023-05-07T08:31:33;12.93;;;5.53;;
4424;SDS011;2225;53.568;13.266;2023-05-07T08:34:00;14.90;;;5.20;;
4424;SDS011;2225;53.568;13.266;2023-05-07T08:36:27;10.70;;;6.57;;
4424;SDS011;2225;53.568;13.266;2023-05-07T08:38:54;11.97;;;5.60;;
4424;SDS011;2225;53.568;13.266;2023-05-07T08:41:21;11.07;;;5.07;;
4424;SDS011;2225;53.568;13.266;2023-05-07T08:43:49;15.73;;;5.80;;
4424;SDS011;2225;53.568;13.266;2023-05-07T08:46:18;13.73;;;6.60;;
4424;SDS011;2225;53.568;13.266;2023-05-07T08:48:48;13.93;;;6.30;;
4424;SDS011;2225;53.568;13.266;2023-05-07T08:51:17;9.50;;;5.67;;
4424;SDS011;2225;53.568;13.266;2023-05-07T08:53:46;12.67;;;5.60;;
4424;SDS011;2225;53.568;13.266;2023-05-07T08:56:20;11.17;;;5.97;;
4424;SDS011;2225;53.568;13.266;2023-05-07T08:58:49;12.70;;;5.90;;
4424;SDS011;2225;53.568;13.266;2023-05-07T09:01:17;12.83;;;5.33;;
4424;SDS011;2225;53.568;13.266;2023-05-07T09:03:49;11.30;;;5.53;;
4424;SDS011;2225;53.568;13.266;2023-05-07T09:06:16;15.40;;;6.00;;
4424;SDS011;2225;53.568;13.266;2023-05-07T09:08:48;15.87;;;6.40;;
4424;SDS011;2225;53.568;13.266;2023-05-07T09:11:24;11.30;;;4.93;;
4424;SDS011;2225;53.568;13.266;2023-05-07T09:13:56;20.90;;;6.63;;
4424;SDS011;2225;53.568;13.266;2023-05-07T09:16:26;19.93;;;5.40;;
4424;SDS011;2225;53.568;13.266;2023-05-07T09:18:59;16.23;;;6.10;;
4424;SDS011;2225;53.568;13.266;2023-05-07T09:21:29;11.77;;;5.63;;
4424;SDS011;2225;53.568;13.266;2023-05-07T09:23:58;14.60;;;5.00;;
4424;SDS011;2225;53.568;13.266;2023-05-07T09:26:34;12.87;;;5.43;;
4424;SDS011;2225;53.568;13.266;2023-05-07T09:29:03;14.60;;;5.23;;
4424;SDS011;2225;53.568;13.266;2023-05-07T09:31:30;14.60;;;5.67;;
4424;SDS011;2225;53.568;13.266;2023-05-07T09:33:57;13.77;;;5.60;;
4424;SDS011;2225;53.568;13.266;2023-05-07T09:36:27;10.67;;;5.20;;
4424;SDS011;2225;53.568;13.266;2023-05-07T09:38:58;13.00;;;6.50;;
4424;SDS011;2225;53.568;13.266;2023-05-07T09:41:26;13.93;;;6.33;;
4424;SDS011;2225;53.568;13.266;2023-05-07T09:44:13;16.80;;;5.73;;
4424;SDS011;2225;53.568;13.266;2023-05-07T09:46:45;11.83;;;5.77;;
4424;SDS011;2225;53.568;13.266;2023-05-07T09:49:23;11.90;;;6.10;;
4424;SDS011;2225;53.568;13.266;2023-05-07T09:51:58;11.67;;;6.80;;
4424;SDS011;2225;53.568;13.266;2023-05-07T09:54:30;15.80;;;7.20;;
4424;SDS011;2225;53.568;13.266;2023-05-07T09:57:01;16.03;;;5.87;;
4424;SDS011;2225;53.568;13.266;2023-05-07T09:59:29;15.80;;;5.80;;
4424;SDS011;2225;53.568;13.266;2023-05-07T10:02:01;15.90;;;6.17;;
4424;SDS011;2225;53.568;13.266;2023-05-07T10:04:34;18.33;;;6.07;;
4424;SDS011;2225;53.568;13.266;2023-05-07T10:07:03;12.03;;;6.03;;
4424;SDS011;2225;53.568;13.266;2023-05-07T10:09:31;16.60;;;7.20;;
4424;SDS011;2225;53.568;13.266;2023-05-07T10:11:59;11.00;;;5.60;;
4424;SDS011;2225;53.568;13.266;2023-05-07T10:14:27;13.03;;;6.60;;
4424;SDS011;2225;53.568;13.266;2023-05-07T10:16:55;13.60;;;7.17;;
4424;SDS011;2225;53.568;13.266;2023-05-07T10:19:24;11.47;;;6.40;;
4424;SDS011;2225;53.568;13.266;2023-05-07T10:21:55;14.70;;;5.87;;
4424;SDS011;2225;53.568;13.266;2023-05-07T10:24:31;14.17;;;6.60;;
4424;SDS011;2225;53.568;13.266;2023-05-07T10:27:03;20.33;;;6.70;;
4424;SDS011;2225;53.568;13.266;2023-05-07T10:29:42;11.47;;;5.63;;
4424;SDS011;2225;53.568;13.266;2023-05-07T10:32:40;10.80;;;6.30;;
4424;SDS011;2225;53.568;13.266;2023-05-07T10:35:20;14.53;;;7.20;;
4424;SDS011;2225;53.568;13.266;2023-05-07T10:37:53;14.77;;;6.60;;
4424;SDS011;2225;53.568;13.266;2023-05-07T10:40:23;14.33;;;6.10;;
4424;SDS011;2225;53.568;13.266;2023-05-07T10:45:31;13.77;;;5.30;;
4424;SDS011;2225;53.568;13.266;2023-05-07T10:48:08;14.67;;;6.13;;
4424;SDS011;2225;53.568;13.266;2023-05-07T10:50:49;17.27;;;6.53;;
4424;SDS011;2225;53.568;13.266;2023-05-07T10:56:41;18.80;;;5.70;;
4424;SDS011;2225;53.568;13.266;2023-05-07T11:02:00;19.97;;;6.27;;
4424;SDS011;2225;53.568;13.266;2023-05-07T11:05:18;10.90;;;5.73;;
4424;SDS011;2225;53.568;13.266;2023-05-07T11:08:12;11.43;;;3.70;;
4424;SDS011;2225;53.568;13.266;2023-05-07T11:10:53;9.73;;;4.67;;
4424;SDS011;2225;53.568;13.266;2023-05-07T11:13:46;13.53;;;4.87;;
4424;SDS011;2225;53.568;13.266;2023-05-07T11:16:46;13.73;;;5.00;;
4424;SDS011;2225;53.568;13.266;2023-05-07T11:22:41;8.37;;;3.73;;
4424;SDS011;2225;53.568;13.266;2023-05-07T11:25:25;13.40;;;5.13;;
4424;SDS011;2225;53.568;13.266;2023-05-07T11:28:04;11.33;;;4.90;;
4424;SDS011;2225;53.568;13.266;2023-05-07T11:30:34;12.70;;;5.17;;
4424;SDS011;2225;53.568;13.266;2023-05-07T11:33:03;10.20;;;4.40;;
4424;SDS011;2225;53.568;13.266;2023-05-07T11:35:32;11.17;;;4.30;;
4424;SDS011;2225;53.568;13.266;2023-05-07T11:38:03;11.97;;;4.30;;
4424;SDS011;2225;53.568;13.266;2023-05-07T11:40:33;11.43;;;3.80;;
4424;SDS011;2225;53.568;13.266;2023-05-07T11:43:05;8.30;;;3.50;;
4424;SDS011;2225;53.568;13.266;2023-05-07T11:45:37;9.17;;;3.63;;
4424;SDS011;2225;53.568;13.266;2023-05-07T11:48:04;9.40;;;3.60;;
4424;SDS011;2225;53.568;13.266;2023-05-07T11:50:31;6.93;;;3.40;;
4424;SDS011;2225;53.568;13.266;2023-05-07T11:52:58;11.53;;;3.80;;
4424;SDS011;2225;53.568;13.266;2023-05-07T11:55:25;7.50;;;3.30;;
4424;SDS011;2225;53.568;13.266;2023-05-07T11:57:52;11.80;;;4.10;;
4424;SDS011;2225;53.568;13.266;2023-05-07T12:00:19;7.50;;;3.53;;
4424;SDS011;2225;53.568;13.266;2023-05-07T12:02:46;7.43;;;3.10;;
4424;SDS011;2225;53.568;13.266;2023-05-07T12:05:13;8.50;;;3.23;;
4424;SDS011;2225;53.568;13.266;2023-05-07T12:07:40;8.17;;;3.20;;
4424;SDS011;2225;53.568;13.266;2023-05-07T12:10:08;8.10;;;3.00;;
4424;SDS011;2225;53.568;13.266;2023-05-07T12:12:38;6.93;;;2.90;;
4424;SDS011;2225;53.568;13.266;2023-05-07T12:15:06;7.00;;;3.20;;
4424;SDS011;2225;53.568;13.266;2023-05-07T12:17:34;9.43;;;2.93;;
4424;SDS011;2225;53.568;13.266;2023-05-07T12:20:02;7.63;;;2.87;;
4424;SDS011;2225;53.568;13.266;2023-05-07T12:22:31;9.77;;;3.23;;
4424;SDS011;2225;53.568;13.266;2023-05-07T12:24:58;8.50;;;3.97;;
4424;SDS011;2225;53.568;13.266;2023-05-07T12:27:25;6.90;;;3.07;;
4424;SDS011;2225;53.568;13.266;2023-05-07T12:29:52;10.67;;;3.30;;
4424;SDS011;2225;53.568;13.266;2023-05-07T12:32:20;9.50;;;3.37;;
4424;SDS011;2225;53.568;13.266;2023-05-07T12:34:51;7.53;;;3.03;;
4424;SDS011;2225;53.568;13.266;2023-05-07T12:37:24;12.33;;;3.70;;
4424;SDS011;2225;53.568;13.266;2023-05-07T12:40:07;8.73;;;3.60;;
4424;SDS011;2225;53.568;13.266;2023-05-07T12:42:36;9.53;;;3.07;;
4424;SDS011;2225;53.568;13.266;2023-05-07T12:45:15;10.23;;;2.90;;
4424;SDS011;2225;53.568;13.266;2023-05-07T12:47:46;10.37;;;4.00;;
4424;SDS011;2225;53.568;13.266;2023-05-07T12:50:14;7.30;;;3.27;;
4424;SDS011;2225;53.568;13.266;2023-05-07T12:52:45;9.60;;;4.00;;
4424;SDS011;2225;53.568;13.266;2023-05-07T12:55:14;10.63;;;3.73;;
4424;SDS011;2225;53.568;13.266;2023-05-07T12:57:47;8.73;;;3.77;;
4424;SDS011;2225;53.568;13.266;2023-05-07T13:00:16;8.50;;;3.97;;
4424;SDS011;2225;53.568;13.266;2023-05-07T13:02:44;11.10;;;4.07;;
4424;SDS011;2225;53.568;13.266;2023-05-07T13:05:12;9.30;;;3.83;;
4424;SDS011;2225;53.568;13.266;2023-05-07T13:07:39;7.33;;;3.00;;
4424;SDS011;2225;53.568;13.266;2023-05-07T13:10:07;19.50;;;3.80;;
4424;SDS011;2225;53.568;13.266;2023-05-07T13:12:35;9.30;;;3.90;;
4424;SDS011;2225;53.568;13.266;2023-05-07T13:15:02;8.07;;;3.03;;
4424;SDS011;2225;53.568;13.266;2023-05-07T13:17:29;11.63;;;3.77;;
4424;SDS011;2225;53.568;13.266;2023-05-07T13:19:57;10.73;;;4.07;;
4424;SDS011;2225;53.568;13.266;2023-05-07T13:22:25;12.50;;;4.40;;
4424;SDS011;2225;53.568;13.266;2023-05-07T13:24:51;9.10;;;4.03;;
4424;SDS011;2225;53.568;13.266;2023-05-07T13:27:18;14.07;;;4.40;;
4424;SDS011;2225;53.568;13.266;2023-05-07T13:29:46;14.37;;;3.83;;
4424;SDS011;2225;53.568;13.266;2023-05-07T13:32:13;9.30;;;3.27;;
4424;SDS011;2225;53.568;13.266;2023-05-07T13:34:40;10.10;;;3.60;;
4424;SDS011;2225;53.568;13.266;2023-05-07T13:37:07;10.43;;;3.50;;
4424;SDS011;2225;53.568;13.266;2023-05-07T13:39:36;11.70;;;4.23;;
4424;SDS011;2225;53.568;13.266;2023-05-07T13:42:03;9.83;;;4.27;;
4424;SDS011;2225;53.568;13.266;2023-05-07T13:44:30;9.03;;;4.43;;
4424;SDS011;2225;53.568;13.266;2023-05-07T13:46:57;10.87;;;3.50;;
4424;SDS011;2225;53.568;13.266;2023-05-07T13:49:24;6.77;;;2.90;;
4424;SDS011;2225;53.568;13.266;2023-05-07T13:51:51;7.30;;;3.73;;
4424;SDS011;2225;53.568;13.266;2023-05-07T13:54:18;14.90;;;3.80;;
4424;SDS011;2225;53.568;13.266;2023-05-07T13:56:45;11.03;;;3.83;;
4424;SDS011;2225;53.568;13.266;2023-05-07T13:59:12;11.27;;;3.87;;
4424;SDS011;2225;53.568;13.266;2023-05-07T14:01:40;10.20;;;3.57;;
4424;SDS011;2225;53.568;13.266;2023-05-07T14:04:07;8.90;;;3.90;;
4424;SDS011;2225;53.568;13.266;2023-05-07T14:06:34;9.20;;;3.87;;
4424;SDS011;2225;53.568;13.266;2023-05-07T14:09:01;10.80;;;3.73;;
4424;SDS011;2225;53.568;13.266;2023-05-07T14:11:28;8.00;;;3.70;;
4424;SDS011;2225;53.568;13.266;2023-05-07T14:13:55;11.73;;;3.03;;
4424;SDS011;2225;53.568;13.266;2023-05-07T14:16:23;8.07;;;3.70;;
4424;SDS011;2225;53.568;13.266;2023-05-07T14:18:50;13.03;;;3.87;;
4424;SDS011;2225;53.568;13.266;2023-05-07T14:21:17;12.63;;;3.40;;
4424;SDS011;2225;53.568;13.266;2023-05-07T14:23:44;9.63;;;3.20;;
4424;SDS011;2225;53.568;13.266;2023-05-07T14:26:10;8.07;;;3.23;;
4424;SDS011;2225;53.568;13.266;2023-05-07T14:28:37;8.03;;;3.80;;
4424;SDS011;2225;53.568;13.266;2023-05-07T14:31:05;11.73;;;3.70;;
4424;SDS011;2225;53.568;13.266;2023-05-07T14:33:32;10.77;;;3.90;;
4424;SDS011;2225;53.568;13.266;2023-05-07T14:36:00;8.50;;;3.23;;
4424;SDS011;2225;53.568;13.266;2023-05-07T14:38:27;7.87;;;3.70;;
4424;SDS011;2225;53.568;13.266;2023-05-07T14:40:53;12.03;;;4.33;;
4424;SDS011;2225;53.568;13.266;2023-05-07T14:43:22;14.47;;;3.97;;
4424;SDS011;2225;53.568;13.266;2023-05-07T14:45:49;8.83;;;2.90;;
4424;SDS011;2225;53.568;13.266;2023-05-07T14:48:16;9.53;;;3.47;;
4424;SDS011;2225;53.568;13.266;2023-05-07T14:50:47;9.63;;;3.80;;
4424;SDS011;2225;53.568;13.266;2023-05-07T14:53:15;20.60;;;4.40;;
4424;SDS011;2225;53.568;13.266;2023-05-07T14:55:42;9.13;;;3.70;;
4424;SDS011;2225;53.568;13.266;2023-05-07T14:58:09;9.60;;;3.50;;
4424;SDS011;2225;53.568;13.266;2023-05-07T15:00:37;13.73;;;3.70;;
4424;SDS011;2225;53.568;13.266;2023-05-07T15:03:05;7.90;;;3.90;;
4424;SDS011;2225;53.568;13.266;2023-05-07T15:05:34;8.00;;;3.40;;
4424;SDS011;2225;53.568;13.266;2023-05-07T15:08:02;13.90;;;3.90;;
4424;SDS011;2225;53.568;13.266;2023-05-07T15:10:29;10.80;;;3.93;;
4424;SDS011;2225;53.568;13.266;2023-05-07T15:12:56;8.90;;;3.97;;